sensor_id;sensor_type;location;lat;lon;timestamp;temperature;humidity
31725;DHT22;18306;40.960;14.836;2023-02-28T00:01:44;12.50;99.90
31725;DHT22;18306;40.960;14.836;2023-02-28T00:04:11;12.60;99.90
31725;DHT22;18306;40.960;14.836;2023-02-28T00:06:39;12.60;99.90
31725;DHT22;18306;40.960;14.836;2023-02-28T00:09:06;12.80;99.90
31725;DHT22;18306;40.960;14.836;2023-02-28T00:11:34;12.90;99.90
31725;DHT22;18306;40.960;14.836;2023-02-28T00:14:01;13.00;99.90
31725;DHT22;18306;40.960;14.836;2023-02-28T00:16:28;12.90;99.90
31725;DHT22;18306;40.960;14.836;2023-02-28T00:18:56;12.70;99.90
31725;DHT22;18306;40.960;14.836;2023-02-28T00:21:23;12.70;99.90
31725;DHT22;18306;40.960;14.836;2023-02-28T00:23:50;12.60;99.90
31725;DHT22;18306;40.960;14.836;2023-02-28T00:26:18;12.60;99.90
31725;DHT22;18306;40.960;14.836;2023-02-28T00:28:45;12.60;99.90
31725;DHT22;18306;40.960;14.836;2023-02-28T00:31:13;12.70;99.90
31725;DHT22;18306;40.960;14.836;2023-02-28T00:33:40;12.60;99.90
31725;DHT22;18306;40.960;14.836;2023-02-28T00:36:10;12.60;99.90
31725;DHT22;18306;40.960;14.836;2023-02-28T00:38:38;12.70;99.90
31725;DHT22;18306;40.960;14.836;2023-02-28T00:41:07;12.70;99.90
31725;DHT22;18306;40.960;14.836;2023-02-28T00:43:36;12.70;99.90
31725;DHT22;18306;40.960;14.836;2023-02-28T00:46:04;12.70;99.90
31725;DHT22;18306;40.960;14.836;2023-02-28T00:48:32;11.70;99.90
31725;DHT22;18306;40.960;14.836;2023-02-28T00:50:59;12.70;99.90
31725;DHT22;18306;40.960;14.836;2023-02-28T00:53:27;12.70;99.90
31725;DHT22;18306;40.960;14.836;2023-02-28T00:55:54;12.60;99.90
31725;DHT22;18306;40.960;14.836;2023-02-28T00:58:21;12.60;99.90
31725;DHT22;18306;40.960;14.836;2023-02-28T01:00:50;12.60;99.90
31725;DHT22;18306;40.960;14.836;2023-02-28T01:03:19;12.50;99.90
31725;DHT22;18306;40.960;14.836;2023-02-28T01:05:47;12.40;99.90
31725;DHT22;18306;40.960;14.836;2023-02-28T01:08:14;12.40;99.90
31725;DHT22;18306;40.960;14.836;2023-02-28T01:10:42;12.30;99.90
31725;DHT22;18306;40.960;14.836;2023-02-28T01:13:10;12.20;99.90
31725;DHT22;18306;40.960;14.836;2023-02-28T01:15:40;12.20;99.90
31725;DHT22;18306;40.960;14.836;2023-02-28T01:18:08;12.20;99.90
31725;DHT22;18306;40.960;14.836;2023-02-28T01:20:39;12.20;99.90
31725;DHT22;18306;40.960;14.836;2023-02-28T01:23:06;12.30;99.90
31725;DHT22;18306;40.960;14.836;2023-02-28T01:25:35;12.30;99.90
31725;DHT22;18306;40.960;14.836;2023-02-28T01:28:05;12.30;99.90
31725;DHT22;18306;40.960;14.836;2023-02-28T01:30:33;12.40;99.90
31725;DHT22;18306;40.960;14.836;2023-02-28T01:33:00;12.50;99.90
31725;DHT22;18306;40.960;14.836;2023-02-28T01:35:28;12.40;99.90
31725;DHT22;18306;40.960;14.836;2023-02-28T01:37:55;12.20;99.90
31725;DHT22;18306;40.960;14.836;2023-02-28T01:40:22;12.20;99.90
31725;DHT22;18306;40.960;14.836;2023-02-28T01:42:50;12.20;99.90
31725;DHT22;18306;40.960;14.836;2023-02-28T01:45:30;12.20;99.90
31725;DHT22;18306;40.960;14.836;2023-02-28T01:48:07;12.20;99.90
31725;DHT22;18306;40.960;14.836;2023-02-28T01:50:41;12.10;99.90
31725;DHT22;18306;40.960;14.836;2023-02-28T01:53:14;12.10;99.90
31725;DHT22;18306;40.960;14.836;2023-02-28T01:55:46;12.20;99.90
31725;DHT22;18306;40.960;14.836;2023-02-28T01:58:15;12.10;99.90
31725;DHT22;18306;40.960;14.836;2023-02-28T02:00:43;12.20;99.90
31725;DHT22;18306;40.960;14.836;2023-02-28T02:03:13;12.20;99.90
31725;DHT22;18306;40.960;14.836;2023-02-28T02:05:42;12.20;99.90
31725;DHT22;18306;40.960;14.836;2023-02-28T02:08:26;12.20;99.90
31725;DHT22;18306;40.960;14.836;2023-02-28T02:11:00;12.20;99.90
31725;DHT22;18306;40.960;14.836;2023-02-28T02:28:02;11.90;99.90
31725;DHT22;18306;40.960;14.836;2023-02-28T02:36:24;11.80;99.90
31725;DHT22;18306;40.960;14.836;2023-02-28T02:39:02;11.80;99.90
31725;DHT22;18306;40.960;14.836;2023-02-28T02:41:52;11.80;99.90
31725;DHT22;18306;40.960;14.836;2023-02-28T02:44:24;11.80;99.90
31725;DHT22;18306;40.960;14.836;2023-02-28T02:46:58;11.80;99.90
31725;DHT22;18306;40.960;14.836;2023-02-28T02:49:31;12.00;99.90
31725;DHT22;18306;40.960;14.836;2023-02-28T02:52:04;11.90;99.90
31725;DHT22;18306;40.960;14.836;2023-02-28T02:54:37;12.00;99.90
31725;DHT22;18306;40.960;14.836;2023-02-28T02:57:08;11.80;99.90
31725;DHT22;18306;40.960;14.836;2023-02-28T02:59:40;11.70;99.90
31725;DHT22;18306;40.960;14.836;2023-02-28T03:02:12;11.60;99.90
31725;DHT22;18306;40.960;14.836;2023-02-28T03:04:56;11.50;99.90
31725;DHT22;18306;40.960;14.836;2023-02-28T03:07:28;11.50;99.90
31725;DHT22;18306;40.960;14.836;2023-02-28T03:09:57;11.40;99.90
31725;DHT22;18306;40.960;14.836;2023-02-28T03:12:39;11.40;99.90
31725;DHT22;18306;40.960;14.836;2023-02-28T03:15:13;11.40;99.90
31725;DHT22;18306;40.960;14.836;2023-02-28T03:18:16;11.40;99.90
31725;DHT22;18306;40.960;14.836;2023-02-28T03:21:14;11.40;99.90
31725;DHT22;18306;40.960;14.836;2023-02-28T03:24:05;11.40;99.90
31725;DHT22;18306;40.960;14.836;2023-02-28T03:26:39;11.30;99.90
31725;DHT22;18306;40.960;14.836;2023-02-28T03:29:25;11.20;99.90
31725;DHT22;18306;40.960;14.836;2023-02-28T03:37:32;11.30;99.90
31725;DHT22;18306;40.960;14.836;2023-02-28T03:40:10;12.30;99.90
31725;DHT22;18306;40.960;14.836;2023-02-28T03:42:42;11.20;99.90
31725;DHT22;18306;40.960;14.836;2023-02-28T03:45:13;11.30;99.90
31725;DHT22;18306;40.960;14.836;2023-02-28T03:47:47;11.40;99.90
31725;DHT22;18306;40.960;14.836;2023-02-28T03:50:32;11.40;99.90
31725;DHT22;18306;40.960;14.836;2023-02-28T03:53:07;11.50;99.90
31725;DHT22;18306;40.960;14.836;2023-02-28T03:55:47;11.50;99.90
31725;DHT22;18306;40.960;14.836;2023-02-28T04:01:05;11.50;99.90
31725;DHT22;18306;40.960;14.836;2023-02-28T04:03:36;11.60;99.90
31725;DHT22;18306;40.960;14.836;2023-02-28T04:06:08;11.70;99.90
31725;DHT22;18306;40.960;14.836;2023-02-28T04:08:40;11.60;99.90
31725;DHT22;18306;40.960;14.836;2023-02-28T04:13:43;11.50;99.90
31725;DHT22;18306;40.960;14.836;2023-02-28T04:16:12;11.40;99.90
31725;DHT22;18306;40.960;14.836;2023-02-28T04:18:40;11.40;99.90
31725;DHT22;18306;40.960;14.836;2023-02-28T04:21:07;11.20;99.90
31725;DHT22;18306;40.960;14.836;2023-02-28T04:23:35;11.30;99.90
31725;DHT22;18306;40.960;14.836;2023-02-28T04:26:02;11.40;99.90
31725;DHT22;18306;40.960;14.836;2023-02-28T04:28:30;11.40;99.90
31725;DHT22;18306;40.960;14.836;2023-02-28T04:31:03;11.40;99.90
31725;DHT22;18306;40.960;14.836;2023-02-28T04:33:31;11.40;99.90
31725;DHT22;18306;40.960;14.836;2023-02-28T04:36:06;11.50;99.90
31725;DHT22;18306;40.960;14.836;2023-02-28T04:38:37;11.30;99.90
31725;DHT22;18306;40.960;14.836;2023-02-28T04:41:05;11.00;99.90
31725;DHT22;18306;40.960;14.836;2023-02-28T04:43:32;10.90;99.90
31725;DHT22;18306;40.960;14.836;2023-02-28T04:46:02;10.90;99.90
31725;DHT22;18306;40.960;14.836;2023-02-28T04:48:32;10.80;99.90
31725;DHT22;18306;40.960;14.836;2023-02-28T04:51:08;10.90;99.90
31725;DHT22;18306;40.960;14.836;2023-02-28T04:53:39;10.90;99.90
31725;DHT22;18306;40.960;14.836;2023-02-28T04:56:15;11.00;99.90
31725;DHT22;18306;40.960;14.836;2023-02-28T04:58:43;11.10;99.90
31725;DHT22;18306;40.960;14.836;2023-02-28T05:01:25;11.10;99.90
31725;DHT22;18306;40.960;14.836;2023-02-28T05:03:54;11.30;99.90
31725;DHT22;18306;40.960;14.836;2023-02-28T05:06:24;11.50;99.90
31725;DHT22;18306;40.960;14.836;2023-02-28T05:08:55;11.50;99.90
31725;DHT22;18306;40.960;14.836;2023-02-28T05:11:24;11.60;99.90
31725;DHT22;18306;40.960;14.836;2023-02-28T05:13:55;11.80;99.90
31725;DHT22;18306;40.960;14.836;2023-02-28T05:16:23;11.80;99.90
31725;DHT22;18306;40.960;14.836;2023-02-28T05:18:51;11.80;99.90
31725;DHT22;18306;40.960;14.836;2023-02-28T05:21:25;11.70;99.90
31725;DHT22;18306;40.960;14.836;2023-02-28T05:23:54;11.70;99.90
31725;DHT22;18306;40.960;14.836;2023-02-28T05:26:22;11.90;99.90
31725;DHT22;18306;40.960;14.836;2023-02-28T05:28:49;11.90;99.90
31725;DHT22;18306;40.960;14.836;2023-02-28T05:31:16;11.90;99.90
31725;DHT22;18306;40.960;14.836;2023-02-28T05:33:44;11.90;99.90
31725;DHT22;18306;40.960;14.836;2023-02-28T05:36:11;12.00;99.90
31725;DHT22;18306;40.960;14.836;2023-02-28T05:38:39;12.00;99.90
31725;DHT22;18306;40.960;14.836;2023-02-28T05:41:09;12.00;99.90
31725;DHT22;18306;40.960;14.836;2023-02-28T05:43:37;12.00;99.90
31725;DHT22;18306;40.960;14.836;2023-02-28T05:46:06;12.10;99.90
31725;DHT22;18306;40.960;14.836;2023-02-28T05:48:35;12.00;99.90
31725;DHT22;18306;40.960;14.836;2023-02-28T05:51:04;12.10;99.90
31725;DHT22;18306;40.960;14.836;2023-02-28T05:53:32;12.00;99.90
31725;DHT22;18306;40.960;14.836;2023-02-28T05:56:00;12.00;99.90
31725;DHT22;18306;40.960;14.836;2023-02-28T05:58:27;11.90;99.90
31725;DHT22;18306;40.960;14.836;2023-02-28T06:00:59;11.90;99.90
31725;DHT22;18306;40.960;14.836;2023-02-28T06:03:28;11.90;99.90
31725;DHT22;18306;40.960;14.836;2023-02-28T06:06:08;12.00;99.90
31725;DHT22;18306;40.960;14.836;2023-02-28T06:08:41;12.00;99.90
31725;DHT22;18306;40.960;14.836;2023-02-28T06:11:17;12.00;99.90
31725;DHT22;18306;40.960;14.836;2023-02-28T06:13:58;12.20;99.90
31725;DHT22;18306;40.960;14.836;2023-02-28T06:16:34;12.40;99.90
31725;DHT22;18306;40.960;14.836;2023-02-28T06:19:04;12.40;99.90
31725;DHT22;18306;40.960;14.836;2023-02-28T06:21:31;12.30;99.90
31725;DHT22;18306;40.960;14.836;2023-02-28T06:23:59;12.40;99.90
31725;DHT22;18306;40.960;14.836;2023-02-28T06:26:27;12.60;99.90
31725;DHT22;18306;40.960;14.836;2023-02-28T06:28:55;12.60;99.90
31725;DHT22;18306;40.960;14.836;2023-02-28T06:31:22;12.50;99.90
31725;DHT22;18306;40.960;14.836;2023-02-28T06:33:51;12.20;99.90
31725;DHT22;18306;40.960;14.836;2023-02-28T06:36:21;12.10;99.90
31725;DHT22;18306;40.960;14.836;2023-02-28T06:38:49;12.00;99.90
31725;DHT22;18306;40.960;14.836;2023-02-28T06:41:26;11.70;99.90
31725;DHT22;18306;40.960;14.836;2023-02-28T06:43:53;11.60;99.90
31725;DHT22;18306;40.960;14.836;2023-02-28T06:46:21;11.50;99.90
31725;DHT22;18306;40.960;14.836;2023-02-28T06:48:49;11.60;99.90
31725;DHT22;18306;40.960;14.836;2023-02-28T06:51:19;11.70;99.90
31725;DHT22;18306;40.960;14.836;2023-02-28T06:53:49;11.80;99.90
31725;DHT22;18306;40.960;14.836;2023-02-28T06:56:18;11.90;99.90
31725;DHT22;18306;40.960;14.836;2023-02-28T06:58:49;12.10;99.90
31725;DHT22;18306;40.960;14.836;2023-02-28T07:01:17;12.20;99.90
31725;DHT22;18306;40.960;14.836;2023-02-28T07:03:46;12.30;99.90
31725;DHT22;18306;40.960;14.836;2023-02-28T07:06:14;12.30;99.90
31725;DHT22;18306;40.960;14.836;2023-02-28T07:08:41;12.70;99.90
31725;DHT22;18306;40.960;14.836;2023-02-28T07:11:09;12.50;99.90
31725;DHT22;18306;40.960;14.836;2023-02-28T07:13:36;12.30;99.90
31725;DHT22;18306;40.960;14.836;2023-02-28T07:16:07;12.30;99.90
31725;DHT22;18306;40.960;14.836;2023-02-28T07:18:37;12.40;99.90
31725;DHT22;18306;40.960;14.836;2023-02-28T07:21:07;12.50;99.90
31725;DHT22;18306;40.960;14.836;2023-02-28T07:23:38;12.50;99.90
31725;DHT22;18306;40.960;14.836;2023-02-28T07:26:07;12.50;99.90
31725;DHT22;18306;40.960;14.836;2023-02-28T07:28:38;12.60;99.90
31725;DHT22;18306;40.960;14.836;2023-02-28T07:31:06;12.70;99.90
31725;DHT22;18306;40.960;14.836;2023-02-28T07:33:34;12.60;99.90
31725;DHT22;18306;40.960;14.836;2023-02-28T07:36:08;12.50;99.90
31725;DHT22;18306;40.960;14.836;2023-02-28T07:38:36;12.50;99.90
31725;DHT22;18306;40.960;14.836;2023-02-28T07:41:04;12.50;99.90
31725;DHT22;18306;40.960;14.836;2023-02-28T07:43:32;12.50;99.90
31725;DHT22;18306;40.960;14.836;2023-02-28T07:46:06;12.60;99.90
31725;DHT22;18306;40.960;14.836;2023-02-28T07:48:34;12.60;99.90
31725;DHT22;18306;40.960;14.836;2023-02-28T07:51:02;12.50;99.90
31725;DHT22;18306;40.960;14.836;2023-02-28T07:53:30;12.60;99.90
31725;DHT22;18306;40.960;14.836;2023-02-28T07:55:58;12.70;99.90
31725;DHT22;18306;40.960;14.836;2023-02-28T07:58:26;12.80;99.90
31725;DHT22;18306;40.960;14.836;2023-02-28T08:00:54;13.00;99.90
31725;DHT22;18306;40.960;14.836;2023-02-28T08:03:23;13.10;99.90
31725;DHT22;18306;40.960;14.836;2023-02-28T08:05:51;13.20;99.90
31725;DHT22;18306;40.960;14.836;2023-02-28T08:08:19;13.10;99.90
31725;DHT22;18306;40.960;14.836;2023-02-28T08:10:46;13.00;99.90
31725;DHT22;18306;40.960;14.836;2023-02-28T08:13:14;13.20;99.90
31725;DHT22;18306;40.960;14.836;2023-02-28T08:15:42;13.20;99.90
31725;DHT22;18306;40.960;14.836;2023-02-28T08:18:10;13.30;99.90
31725;DHT22;18306;40.960;14.836;2023-02-28T08:20:37;13.30;99.90
31725;DHT22;18306;40.960;14.836;2023-02-28T08:23:05;13.40;99.90
31725;DHT22;18306;40.960;14.836;2023-02-28T08:25:32;13.40;99.90
31725;DHT22;18306;40.960;14.836;2023-02-28T08:28:00;13.40;99.90
31725;DHT22;18306;40.960;14.836;2023-02-28T08:30:27;13.30;99.90
31725;DHT22;18306;40.960;14.836;2023-02-28T08:32:54;13.20;99.90
31725;DHT22;18306;40.960;14.836;2023-02-28T08:35:22;13.30;99.90
31725;DHT22;18306;40.960;14.836;2023-02-28T08:37:50;13.30;99.90
31725;DHT22;18306;40.960;14.836;2023-02-28T08:40:18;13.20;99.90
31725;DHT22;18306;40.960;14.836;2023-02-28T08:42:46;13.20;99.90
31725;DHT22;18306;40.960;14.836;2023-02-28T08:45:16;13.40;99.90
31725;DHT22;18306;40.960;14.836;2023-02-28T08:47:44;13.50;99.90
31725;DHT22;18306;40.960;14.836;2023-02-28T08:50:14;13.70;99.90
31725;DHT22;18306;40.960;14.836;2023-02-28T08:52:43;13.70;99.90
31725;DHT22;18306;40.960;14.836;2023-02-28T08:55:10;13.70;99.90
31725;DHT22;18306;40.960;14.836;2023-02-28T08:57:38;13.80;99.90
31725;DHT22;18306;40.960;14.836;2023-02-28T09:00:05;13.70;99.90
31725;DHT22;18306;40.960;14.836;2023-02-28T09:02:36;13.80;99.90
31725;DHT22;18306;40.960;14.836;2023-02-28T09:05:04;13.90;99.90
31725;DHT22;18306;40.960;14.836;2023-02-28T09:07:31;14.10;99.90
31725;DHT22;18306;40.960;14.836;2023-02-28T09:09:59;14.10;99.90
31725;DHT22;18306;40.960;14.836;2023-02-28T09:12:27;13.80;99.90
31725;DHT22;18306;40.960;14.836;2023-02-28T09:14:56;13.40;99.90
31725;DHT22;18306;40.960;14.836;2023-02-28T09:17:23;13.90;99.90
31725;DHT22;18306;40.960;14.836;2023-02-28T09:19:50;14.00;99.90
31725;DHT22;18306;40.960;14.836;2023-02-28T09:22:17;14.00;99.90
31725;DHT22;18306;40.960;14.836;2023-02-28T09:24:46;14.00;99.90
31725;DHT22;18306;40.960;14.836;2023-02-28T09:27:15;14.00;99.90
31725;DHT22;18306;40.960;14.836;2023-02-28T09:29:43;14.00;99.90
31725;DHT22;18306;40.960;14.836;2023-02-28T09:32:10;14.20;99.90
31725;DHT22;18306;40.960;14.836;2023-02-28T09:34:38;14.20;99.90
31725;DHT22;18306;40.960;14.836;2023-02-28T09:37:05;14.20;99.90
31725;DHT22;18306;40.960;14.836;2023-02-28T09:39:33;14.00;99.90
31725;DHT22;18306;40.960;14.836;2023-02-28T09:42:01;13.90;99.90
31725;DHT22;18306;40.960;14.836;2023-02-28T09:44:33;14.00;99.90
31725;DHT22;18306;40.960;14.836;2023-02-28T09:47:14;14.00;99.90
31725;DHT22;18306;40.960;14.836;2023-02-28T09:49:47;14.20;99.90
31725;DHT22;18306;40.960;14.836;2023-02-28T09:52:20;14.30;99.90
31725;DHT22;18306;40.960;14.836;2023-02-28T09:54:50;14.20;99.90
31725;DHT22;18306;40.960;14.836;2023-02-28T09:57:37;14.10;99.90
31725;DHT22;18306;40.960;14.836;2023-02-28T10:00:18;14.10;99.90
31725;DHT22;18306;40.960;14.836;2023-02-28T10:05:50;14.30;99.90
31725;DHT22;18306;40.960;14.836;2023-02-28T10:08:28;14.20;99.90
31725;DHT22;18306;40.960;14.836;2023-02-28T10:11:06;14.10;99.90
31725;DHT22;18306;40.960;14.836;2023-02-28T10:16:52;13.70;99.90
31725;DHT22;18306;40.960;14.836;2023-02-28T10:19:43;13.70;99.90
31725;DHT22;18306;40.960;14.836;2023-02-28T10:22:34;13.60;99.90
31725;DHT22;18306;40.960;14.836;2023-02-28T10:25:30;13.70;99.90
31725;DHT22;18306;40.960;14.836;2023-02-28T10:28:11;13.80;99.90
31725;DHT22;18306;40.960;14.836;2023-02-28T10:30:50;14.10;99.90
31725;DHT22;18306;40.960;14.836;2023-02-28T10:33:19;14.20;99.90
31725;DHT22;18306;40.960;14.836;2023-02-28T10:35:47;14.20;99.90
31725;DHT22;18306;40.960;14.836;2023-02-28T10:38:23;13.90;99.90
31725;DHT22;18306;40.960;14.836;2023-02-28T10:41:13;14.20;99.90
31725;DHT22;18306;40.960;14.836;2023-02-28T10:43:42;14.30;99.90
31725;DHT22;18306;40.960;14.836;2023-02-28T10:46:15;14.40;99.90
31725;DHT22;18306;40.960;14.836;2023-02-28T10:49:04;14.60;99.90
31725;DHT22;18306;40.960;14.836;2023-02-28T10:51:38;14.60;99.90
31725;DHT22;18306;40.960;14.836;2023-02-28T10:54:15;14.60;99.90
31725;DHT22;18306;40.960;14.836;2023-02-28T10:56:44;14.80;99.90
31725;DHT22;18306;40.960;14.836;2023-02-28T10:59:23;15.00;99.90
31725;DHT22;18306;40.960;14.836;2023-02-28T11:02:00;15.00;99.90
31725;DHT22;18306;40.960;14.836;2023-02-28T11:04:42;14.90;99.90
31725;DHT22;18306;40.960;14.836;2023-02-28T11:07:27;15.10;99.90
31725;DHT22;18306;40.960;14.836;2023-02-28T11:10:01;15.30;99.90
31725;DHT22;18306;40.960;14.836;2023-02-28T11:12:43;15.30;99.90
31725;DHT22;18306;40.960;14.836;2023-02-28T11:15:34;15.30;99.90
31725;DHT22;18306;40.960;14.836;2023-02-28T11:19:14;15.30;99.90
31725;DHT22;18306;40.960;14.836;2023-02-28T11:21:33;15.30;99.90
31725;DHT22;18306;40.960;14.836;2023-02-28T11:24:29;15.30;99.90
31725;DHT22;18306;40.960;14.836;2023-02-28T11:26:59;15.10;99.90
31725;DHT22;18306;40.960;14.836;2023-02-28T11:29:32;15.00;99.90
31725;DHT22;18306;40.960;14.836;2023-02-28T11:32:16;14.80;99.90
31725;DHT22;18306;40.960;14.836;2023-02-28T11:34:47;14.80;99.90
31725;DHT22;18306;40.960;14.836;2023-02-28T11:37:31;14.70;99.90
31725;DHT22;18306;40.960;14.836;2023-02-28T11:39:58;15.00;99.90
31725;DHT22;18306;40.960;14.836;2023-02-28T11:43:09;14.90;99.90
31725;DHT22;18306;40.960;14.836;2023-02-28T11:46:14;14.90;99.90
31725;DHT22;18306;40.960;14.836;2023-02-28T11:49:05;15.00;99.90
31725;DHT22;18306;40.960;14.836;2023-02-28T11:52:12;14.90;99.90
31725;DHT22;18306;40.960;14.836;2023-02-28T11:55:09;15.10;99.90
31725;DHT22;18306;40.960;14.836;2023-02-28T11:58:01;15.40;99.90
31725;DHT22;18306;40.960;14.836;2023-02-28T12:07:27;15.30;99.90
31725;DHT22;18306;40.960;14.836;2023-02-28T12:09:50;15.40;99.90
31725;DHT22;18306;40.960;14.836;2023-02-28T12:22:15;14.90;99.90
31725;DHT22;18306;40.960;14.836;2023-02-28T12:27:14;14.90;99.90
31725;DHT22;18306;40.960;14.836;2023-02-28T12:32:35;14.80;99.90
31725;DHT22;18306;40.960;14.836;2023-02-28T12:38:05;15.00;99.90
31725;DHT22;18306;40.960;14.836;2023-02-28T12:40:44;15.20;99.90
31725;DHT22;18306;40.960;14.836;2023-02-28T12:43:13;15.30;99.90
31725;DHT22;18306;40.960;14.836;2023-02-28T12:46:00;15.30;99.90
31725;DHT22;18306;40.960;14.836;2023-02-28T12:48:50;15.30;99.90
31725;DHT22;18306;40.960;14.836;2023-02-28T12:51:24;15.30;99.90
31725;DHT22;18306;40.960;14.836;2023-02-28T12:54:20;14.90;99.90
31725;DHT22;18306;40.960;14.836;2023-02-28T13:02:33;15.30;99.90
31725;DHT22;18306;40.960;14.836;2023-02-28T13:05:39;15.30;99.90
31725;DHT22;18306;40.960;14.836;2023-02-28T13:10:58;15.40;99.90
31725;DHT22;18306;40.960;14.836;2023-02-28T13:13:29;15.10;99.90
31725;DHT22;18306;40.960;14.836;2023-02-28T13:16:07;15.30;99.90
31725;DHT22;18306;40.960;14.836;2023-02-28T13:18:44;15.30;99.90
31725;DHT22;18306;40.960;14.836;2023-02-28T13:21:28;15.30;99.90
31725;DHT22;18306;40.960;14.836;2023-02-28T13:24:00;15.40;99.90
31725;DHT22;18306;40.960;14.836;2023-02-28T13:39:56;14.80;99.90
31725;DHT22;18306;40.960;14.836;2023-02-28T13:42:55;14.60;99.90
31725;DHT22;18306;40.960;14.836;2023-02-28T13:45:28;14.70;99.90
31725;DHT22;18306;40.960;14.836;2023-02-28T13:48:25;14.60;99.90
31725;DHT22;18306;40.960;14.836;2023-02-28T13:50:51;14.40;99.90
31725;DHT22;18306;40.960;14.836;2023-02-28T13:53:43;14.30;99.90
31725;DHT22;18306;40.960;14.836;2023-02-28T13:56:21;14.20;99.90
31725;DHT22;18306;40.960;14.836;2023-02-28T13:58:55;14.30;99.90
31725;DHT22;18306;40.960;14.836;2023-02-28T14:01:52;14.30;99.90
31725;DHT22;18306;40.960;14.836;2023-02-28T14:06:58;14.40;99.90
31725;DHT22;18306;40.960;14.836;2023-02-28T14:09:36;14.50;99.90
31725;DHT22;18306;40.960;14.836;2023-02-28T14:20:46;14.30;99.90
31725;DHT22;18306;40.960;14.836;2023-02-28T14:26:09;14.10;99.90
31725;DHT22;18306;40.960;14.836;2023-02-28T14:37:13;14.60;99.90
31725;DHT22;18306;40.960;14.836;2023-02-28T14:39:43;14.60;99.90
31725;DHT22;18306;40.960;14.836;2023-02-28T14:42:34;14.60;99.90
31725;DHT22;18306;40.960;14.836;2023-02-28T14:45:02;14.60;99.90
31725;DHT22;18306;40.960;14.836;2023-02-28T14:47:35;14.60;99.90
31725;DHT22;18306;40.960;14.836;2023-02-28T14:50:04;14.70;99.90
31725;DHT22;18306;40.960;14.836;2023-02-28T14:52:43;14.50;99.90
31725;DHT22;18306;40.960;14.836;2023-02-28T14:55:15;14.40;99.90
31725;DHT22;18306;40.960;14.836;2023-02-28T14:57:56;14.40;99.90
31725;DHT22;18306;40.960;14.836;2023-02-28T15:00:27;14.50;99.90
31725;DHT22;18306;40.960;14.836;2023-02-28T15:02:56;14.40;99.90
31725;DHT22;18306;40.960;14.836;2023-02-28T15:05:34;14.20;99.90
31725;DHT22;18306;40.960;14.836;2023-02-28T15:10:33;13.90;99.90
31725;DHT22;18306;40.960;14.836;2023-02-28T15:13:11;14.10;99.90
31725;DHT22;18306;40.960;14.836;2023-02-28T15:15:51;14.00;99.90
31725;DHT22;18306;40.960;14.836;2023-02-28T15:21:03;13.80;99.90
31725;DHT22;18306;40.960;14.836;2023-02-28T15:23:34;13.70;99.90
31725;DHT22;18306;40.960;14.836;2023-02-28T15:26:02;13.80;99.90
31725;DHT22;18306;40.960;14.836;2023-02-28T15:28:30;13.60;99.90
31725;DHT22;18306;40.960;14.836;2023-02-28T15:31:03;13.70;99.90
31725;DHT22;18306;40.960;14.836;2023-02-28T15:33:54;13.60;99.90
31725;DHT22;18306;40.960;14.836;2023-02-28T15:36:30;13.60;99.90
31725;DHT22;18306;40.960;14.836;2023-02-28T15:39:01;13.60;99.90
31725;DHT22;18306;40.960;14.836;2023-02-28T15:41:36;13.60;99.90
31725;DHT22;18306;40.960;14.836;2023-02-28T15:44:23;13.60;99.90
31725;DHT22;18306;40.960;14.836;2023-02-28T15:49:33;13.80;99.90
31725;DHT22;18306;40.960;14.836;2023-02-28T15:52:04;13.80;99.90
31725;DHT22;18306;40.960;14.836;2023-02-28T15:54:34;13.80;99.90
31725;DHT22;18306;40.960;14.836;2023-02-28T15:57:06;13.80;99.90
31725;DHT22;18306;40.960;14.836;2023-02-28T15:59:36;13.70;99.90
31725;DHT22;18306;40.960;14.836;2023-02-28T16:02:15;13.70;99.90
31725;DHT22;18306;40.960;14.836;2023-02-28T16:07:41;13.70;99.90
31725;DHT22;18306;40.960;14.836;2023-02-28T16:10:11;13.50;99.90
31725;DHT22;18306;40.960;14.836;2023-02-28T16:12:40;13.50;99.90
31725;DHT22;18306;40.960;14.836;2023-02-28T16:17:49;13.30;99.90
31725;DHT22;18306;40.960;14.836;2023-02-28T16:20:23;13.30;99.90
31725;DHT22;18306;40.960;14.836;2023-02-28T16:22:50;13.30;99.90
31725;DHT22;18306;40.960;14.836;2023-02-28T16:25:21;13.40;99.90
31725;DHT22;18306;40.960;14.836;2023-02-28T16:27:52;13.50;99.90
31725;DHT22;18306;40.960;14.836;2023-02-28T16:30:23;13.60;99.90
31725;DHT22;18306;40.960;14.836;2023-02-28T16:32:54;13.50;99.90
31725;DHT22;18306;40.960;14.836;2023-02-28T16:35:22;13.50;99.90
31725;DHT22;18306;40.960;14.836;2023-02-28T16:38:13;13.40;99.90
31725;DHT22;18306;40.960;14.836;2023-02-28T16:40:42;13.40;99.90
31725;DHT22;18306;40.960;14.836;2023-02-28T16:43:17;13.40;99.90
31725;DHT22;18306;40.960;14.836;2023-02-28T16:45:59;13.20;99.90
31725;DHT22;18306;40.960;14.836;2023-02-28T16:48:31;13.20;99.90
31725;DHT22;18306;40.960;14.836;2023-02-28T16:51:01;13.30;99.90
31725;DHT22;18306;40.960;14.836;2023-02-28T16:53:33;13.50;99.90
31725;DHT22;18306;40.960;14.836;2023-02-28T16:56:01;13.50;99.90
31725;DHT22;18306;40.960;14.836;2023-02-28T16:58:37;13.50;99.90
31725;DHT22;18306;40.960;14.836;2023-02-28T17:01:06;13.30;99.90
31725;DHT22;18306;40.960;14.836;2023-02-28T17:03:36;13.40;99.90
31725;DHT22;18306;40.960;14.836;2023-02-28T17:06:12;13.40;99.90
31725;DHT22;18306;40.960;14.836;2023-02-28T17:08:46;13.40;99.90
31725;DHT22;18306;40.960;14.836;2023-02-28T17:11:17;13.50;99.90
31725;DHT22;18306;40.960;14.836;2023-02-28T17:13:49;13.40;99.90
31725;DHT22;18306;40.960;14.836;2023-02-28T17:16:23;13.50;99.90
31725;DHT22;18306;40.960;14.836;2023-02-28T17:19:00;13.60;99.90
31725;DHT22;18306;40.960;14.836;2023-02-28T17:21:30;13.60;99.90
31725;DHT22;18306;40.960;14.836;2023-02-28T17:24:02;13.50;99.90
31725;DHT22;18306;40.960;14.836;2023-02-28T17:26:32;13.50;99.90
31725;DHT22;18306;40.960;14.836;2023-02-28T17:29:01;13.50;99.90
31725;DHT22;18306;40.960;14.836;2023-02-28T17:31:30;13.50;99.90
31725;DHT22;18306;40.960;14.836;2023-02-28T17:34:01;13.40;99.90
31725;DHT22;18306;40.960;14.836;2023-02-28T17:36:30;13.20;99.90
31725;DHT22;18306;40.960;14.836;2023-02-28T17:38:59;13.20;99.90
31725;DHT22;18306;40.960;14.836;2023-02-28T17:41:29;13.20;99.90
31725;DHT22;18306;40.960;14.836;2023-02-28T17:44:00;13.30;99.90
31725;DHT22;18306;40.960;14.836;2023-02-28T17:46:28;13.50;99.90
31725;DHT22;18306;40.960;14.836;2023-02-28T17:48:57;13.50;99.90
31725;DHT22;18306;40.960;14.836;2023-02-28T17:51:26;13.50;99.90